Time,TemperatureF,DewpointF,PressureIn,WindDirection,WindDirectionDegrees,WindSpeedMPH,WindSpeedGustMPH,Humidity,HourlyPrecipIn,Conditions,Clouds,dailyrainin,SoftwareType,DateUTC
2013-02-17 00:01:00,34.0,12.0,29.96,SSW,213,4.0,7.0,40,0.00,,,-99.99,,2013-02-17 07:01:00,
2013-02-17 00:11:00,33.0,12.0,29.96,South,175,3.0,9.0,40,0.00,,,-99.99,,2013-02-17 07:11:00,
2013-02-17 00:21:00,32.0,12.0,29.96,South,184,4.0,6.0,42,0.00,,,-99.99,,2013-02-17 07:21:00,
2013-02-17 00:31:00,33.0,12.0,29.96,SSE,149,2.0,5.0,40,0.00,,,-99.99,,2013-02-17 07:31:00,
2013-02-17 00:41:00,33.0,11.0,29.96,South,185,5.0,5.0,41,0.00,,,-99.99,,2013-02-17 07:41:00,
2013-02-17 00:51:00,35.0,11.0,29.96,South,185,4.0,8.0,36,0.00,,,-99.99,,2013-02-17 07:51:00,
2013-02-17 01:01:00,36.0,10.0,29.94,SSE,163,6.0,11.0,35,0.00,,,-99.99,,2013-02-17 08:01:00,
2013-02-17 01:11:00,37.0,9.0,29.94,SSE,158,4.0,7.0,32,0.00,,,-99.99,,2013-02-17 08:11:00,
2013-02-17 01:21:00,35.0,10.0,29.94,South,184,5.0,9.0,34,0.00,,,-99.99,,2013-02-17 08:21:00,
2013-02-17 01:31:00,35.0,10.0,29.94,SW,216,6.0,11.0,36,0.00,,,-99.99,,2013-02-17 08:31:00,
2013-02-17 01:42:00,35.0,10.0,29.94,South,172,3.0,8.0,35,0.00,,,-99.99,,2013-02-17 08:42:00,
2013-02-17 01:52:00,35.0,9.0,29.94,South,172,8.0,8.0,34,0.00,,,-99.99,,2013-02-17 08:52:00,
2013-02-17 02:01:00,36.0,9.0,29.93,South,187,6.0,9.0,32,0.00,,,-99.99,,2013-02-17 09:01:00,
2013-02-17 02:11:00,35.0,9.0,29.93,SW,223,4.0,7.0,33,0.00,,,-99.99,,2013-02-17 09:11:00,
2013-02-17 02:21:00,36.0,8.0,29.93,SSW,204,5.0,7.0,30,0.00,,,-99.99,,2013-02-17 09:21:00,
2013-02-17 02:31:00,36.0,8.0,29.92,SSW,210,6.0,8.0,30,0.00,,,-99.99,,2013-02-17 09:31:00,
2013-02-17 02:41:00,36.0,8.0,29.92,South,189,6.0,7.0,31,0.00,,,-99.99,,2013-02-17 09:41:00,
2013-02-17 02:51:00,36.0,8.0,29.92,SSW,210,3.0,8.0,30,0.00,,,-99.99,,2013-02-17 09:51:00,
2013-02-17 03:01:00,35.0,8.0,29.91,SSW,200,5.0,6.0,31,0.00,,,-99.99,,2013-02-17 10:01:00,
2013-02-17 03:11:00,35.0,9.0,29.91,SSE,163,5.0,9.0,32,0.00,,,-99.99,,2013-02-17 10:11:00,
2013-02-17 03:21:00,35.0,8.0,29.91,SSW,197,6.0,8.0,32,0.00,,,-99.99,,2013-02-17 10:21:00,
2013-02-17 03:31:00,35.0,9.0,29.91,South,188,4.0,6.0,33,0.00,,,-99.99,,2013-02-17 10:31:00,
2013-02-17 03:41:00,36.0,8.0,29.90,South,171,4.0,6.0,31,0.00,,,-99.99,,2013-02-17 10:41:00,
2013-02-17 03:51:00,35.0,8.0,29.89,South,177,8.0,9.0,32,0.00,,,-99.99,,2013-02-17 10:51:00,
2013-02-17 04:01:00,35.0,8.0,29.89,South,175,6.0,9.0,31,0.00,,,-99.99,,2013-02-17 11:01:00,
2013-02-17 04:11:00,35.0,8.0,29.87,SSE,163,9.0,10.0,32,0.00,,,-99.99,,2013-02-17 11:11:00,
2013-02-17 04:21:00,35.0,8.0,29.87,South,174,7.0,10.0,32,0.00,,,-99.99,,2013-02-17 11:21:00,
2013-02-17 04:32:00,35.0,7.0,29.86,SSE,159,5.0,9.0,31,0.00,,,-99.99,,2013-02-17 11:32:00,
2013-02-17 04:41:00,36.0,7.0,29.86,South,170,10.0,10.0,29,0.00,,,-99.99,,2013-02-17 11:41:00,
2013-02-17 04:52:00,36.0,6.0,29.86,South,171,4.0,10.0,29,0.00,,,-99.99,,2013-02-17 11:52:00,
2013-02-17 05:03:00,36.0,6.0,29.86,South,178,7.0,8.0,29,0.00,,,-99.99,,2013-02-17 12:03:00,
2013-02-17 05:11:00,34.0,7.0,29.86,SSW,197,5.0,9.0,30,0.00,,,-99.99,,2013-02-17 12:11:00,
2013-02-17 05:22:00,33.0,7.0,29.85,SSE,164,6.0,7.0,33,0.00,,,-99.99,,2013-02-17 12:22:00,
2013-02-17 05:32:00,33.0,7.0,29.85,SSW,200,3.0,12.0,33,0.00,,,-99.99,,2013-02-17 12:32:00,
2013-02-17 05:42:00,34.0,7.0,29.85,South,186,4.0,8.0,32,0.00,,,-99.99,,2013-02-17 12:42:00,
2013-02-17 05:52:00,34.0,7.0,29.84,South,172,5.0,10.0,31,0.00,,,-99.99,,2013-02-17 12:52:00,
2013-02-17 06:02:00,33.0,7.0,29.84,South,180,4.0,8.0,32,0.00,,,-99.99,,2013-02-17 13:02:00,
2013-02-17 06:12:00,33.0,7.0,29.83,SE,145,3.0,7.0,32,0.00,,,-99.99,,2013-02-17 13:12:00,
2013-02-17 06:21:00,33.0,7.0,29.83,SSW,207,6.0,8.0,34,0.00,,,-99.99,,2013-02-17 13:21:00,
2013-02-17 06:32:00,33.0,7.0,29.83,SSW,197,5.0,9.0,32,0.00,,,-99.99,,2013-02-17 13:32:00,
2013-02-17 06:41:00,33.0,7.0,29.83,SW,224,8.0,8.0,32,0.00,,,-99.99,,2013-02-17 13:41:00,
2013-02-17 06:51:00,33.0,6.0,29.82,SW,220,5.0,10.0,32,0.00,,,-99.99,,2013-02-17 13:51:00,
2013-02-17 07:01:00,34.0,6.0,29.82,WSW,243,5.0,9.0,31,0.00,,,-99.99,,2013-02-17 14:01:00,
2013-02-17 07:11:00,34.0,6.0,29.80,SSE,166,5.0,9.0,29,0.00,,,-99.99,,2013-02-17 14:11:00,
2013-02-17 07:21:00,34.0,6.0,29.80,SSE,164,10.0,11.0,30,0.00,,,-99.99,,2013-02-17 14:21:00,
2013-02-17 07:32:00,33.0,7.0,29.80,SSE,167,7.0,11.0,32,0.00,,,-99.99,,2013-02-17 14:32:00,
2013-02-17 07:42:00,32.0,7.0,29.80,South,180,3.0,9.0,35,0.00,,,-99.99,,2013-02-17 14:42:00,
2013-02-17 07:52:00,33.0,7.0,29.80,West,268,5.0,9.0,34,0.00,,,-99.99,,2013-02-17 14:52:00,
2013-02-17 08:01:00,35.0,6.0,29.79,South,187,6.0,11.0,29,0.00,,,-99.99,,2013-02-17 15:01:00,
2013-02-17 08:11:00,35.0,6.0,29.78,SSE,150,8.0,10.0,29,0.00,,,-99.99,,2013-02-17 15:11:00,
2013-02-17 08:21:00,35.0,6.0,29.78,East,92,2.0,12.0,29,0.00,,,-99.99,,2013-02-17 15:21:00,
2013-02-17 08:31:00,36.0,5.0,29.78,SSW,194,5.0,11.0,27,0.00,,,-99.99,,2013-02-17 15:31:00,
2013-02-17 08:41:00,37.0,4.0,29.77,SW,217,4.0,13.0,25,0.00,,,-99.99,,2013-02-17 15:41:00,
2013-02-17 08:52:00,39.0,3.0,29.78,South,189,5.0,11.0,22,0.00,,,-99.99,,2013-02-17 15:52:00,
2013-02-17 09:01:00,40.0,3.0,29.77,SSE,168,6.0,9.0,21,0.00,,,-99.99,,2013-02-17 16:01:00,
2013-02-17 09:11:00,41.0,2.0,29.76,South,180,5.0,11.0,19,0.00,,,-99.99,,2013-02-17 16:11:00,
2013-02-17 09:21:00,42.0,0.0,29.76,South,191,12.0,15.0,17,0.00,,,-99.99,,2013-02-17 16:21:00,
2013-02-17 09:32:00,43.0,1.0,29.73,SW,222,9.0,14.0,17,0.00,,,-99.99,,2013-02-17 16:32:00,
2013-02-17 09:41:00,46.0,-1.0,29.73,SSE,152,10.0,14.0,14,0.00,,,-99.99,,2013-02-17 16:41:00,
2013-02-17 09:51:00,48.0,-1.0,29.73,SSE,149,7.0,12.0,13,0.00,,,-99.99,,2013-02-17 16:51:00,
2013-02-17 10:02:00,51.0,0.0,29.72,SSE,164,3.0,11.0,12,0.00,,,-99.99,,2013-02-17 17:02:00,
2013-02-17 10:11:00,52.0,-3.0,29.72,South,174,6.0,11.0,10,0.00,,,-99.99,,2013-02-17 17:11:00,
2013-02-17 10:21:00,52.0,-3.0,29.71,South,174,6.0,13.0,10,0.00,,,-99.99,,2013-02-17 17:21:00,
2013-02-17 10:32:00,53.0,-2.0,29.71,SSW,205,7.0,9.0,10,0.00,,,-99.99,,2013-02-17 17:32:00,
2013-02-17 10:41:00,54.0,-4.0,29.70,South,186,11.0,13.0,9,0.00,,,-99.99,,2013-02-17 17:41:00,
2013-02-17 10:52:00,54.0,-6.0,29.70,South,185,15.0,19.0,8,0.00,,,-99.99,,2013-02-17 17:52:00,
2013-02-17 11:01:00,55.0,-5.0,29.69,SSE,153,7.0,13.0,8,0.00,,,-99.99,,2013-02-17 18:01:00,
2013-02-17 11:11:00,56.0,-5.0,29.69,SSW,194,7.0,18.0,8,0.00,,,-99.99,,2013-02-17 18:11:00,
2013-02-17 11:21:00,57.0,-5.0,29.67,South,180,5.0,13.0,8,0.00,,,-99.99,,2013-02-17 18:21:00,
2013-02-17 11:33:00,59.0,-5.0,29.67,South,177,7.0,13.0,7,0.00,,,-99.99,,2013-02-17 18:33:00,
2013-02-17 11:42:00,59.0,-6.0,29.66,South,188,14.0,15.0,7,0.00,,,-99.99,,2013-02-17 18:42:00,
2013-02-17 11:52:00,60.0,-7.0,29.66,South,171,3.0,17.0,6,0.00,,,-99.99,,2013-02-17 18:52:00,
2013-02-17 12:01:00,60.0,-7.0,29.65,SSW,205,7.0,11.0,6,0.00,,,-99.99,,2013-02-17 19:01:00,
2013-02-17 12:11:00,61.0,-7.0,29.64,SSW,198,5.0,11.0,6,0.00,,,-99.99,,2013-02-17 19:11:00,
2013-02-17 12:21:00,62.0,-6.0,29.63,WNW,291,6.0,9.0,6,0.00,,,-99.99,,2013-02-17 19:21:00,
2013-02-17 12:32:00,61.0,-7.0,29.63,SW,230,13.0,19.0,6,0.00,,,-99.99,,2013-02-17 19:32:00,
2013-02-17 12:41:00,62.0,-7.0,29.62,SW,215,3.0,15.0,6,0.00,,,-99.99,,2013-02-17 19:41:00,
2013-02-17 12:51:00,62.0,-7.0,29.60,WNW,294,3.0,13.0,6,0.00,,,-99.99,,2013-02-17 19:51:00,
2013-02-17 13:01:00,61.0,-6.0,29.60,West,261,4.0,16.0,6,0.00,,,-99.99,,2013-02-17 20:01:00,
2013-02-17 13:11:00,61.0,-7.0,29.59,SSW,207,6.0,11.0,6,0.00,,,-99.99,,2013-02-17 20:11:00,
2013-02-17 13:21:00,60.0,-6.0,29.59,WNW,296,8.0,11.0,6,0.00,,,-99.99,,2013-02-17 20:21:00,
2013-02-17 13:32:00,60.0,-6.0,29.58,WNW,286,10.0,16.0,6,0.00,,,-99.99,,2013-02-17 20:32:00,
2013-02-17 13:42:00,61.0,-6.0,29.58,NNW,336,5.0,13.0,6,0.00,,,-99.99,,2013-02-17 20:42:00,
2013-02-17 13:52:00,61.0,-5.0,29.57,West,259,7.0,10.0,7,0.00,,,-99.99,,2013-02-17 20:52:00,
2013-02-17 14:01:00,61.0,-5.0,29.56,NW,319,7.0,10.0,6,0.00,,,-99.99,,2013-02-17 21:01:00,
2013-02-17 14:11:00,62.0,-6.0,29.56,WNW,283,3.0,8.0,6,0.00,,,-99.99,,2013-02-17 21:11:00,
2013-02-17 14:21:00,62.0,-6.0,29.56,North,356,7.0,10.0,6,0.00,,,-99.99,,2013-02-17 21:21:00,
2013-02-17 14:31:00,61.0,-6.0,29.55,WNW,291,3.0,8.0,6,0.00,,,-99.99,,2013-02-17 21:31:00,
2013-02-17 14:41:00,63.0,-6.0,29.55,North,3,3.0,6.0,6,0.00,,,-99.99,,2013-02-17 21:41:00,
2013-02-17 14:52:00,61.0,-9.0,29.55,SW,236,17.0,24.0,5,0.00,,,-99.99,,2013-02-17 21:52:00,
2013-02-17 15:01:00,62.0,-11.0,29.55,WSW,249,14.0,29.0,5,0.00,,,-99.99,,2013-02-17 22:01:00,
2013-02-17 15:12:00,62.0,-9.0,29.55,WSW,253,17.0,26.0,5,0.00,,,-99.99,,2013-02-17 22:12:00,
2013-02-17 15:21:00,61.0,-9.0,29.53,West,270,28.0,31.0,5,0.00,,,-99.99,,2013-02-17 22:21:00,
2013-02-17 15:32:00,62.0,-9.0,29.53,WSW,241,26.0,30.0,5,0.00,,,-99.99,,2013-02-17 22:32:00,
2013-02-17 15:41:00,61.0,-10.0,29.53,WSW,242,20.0,34.0,5,0.00,,,-99.99,,2013-02-17 22:41:00,
2013-02-17 15:52:00,61.0,-12.0,29.53,SW,235,18.0,31.0,5,0.00,,,-99.99,,2013-02-17 22:52:00,
2013-02-17 16:02:00,60.0,-10.0,29.53,West,261,14.0,29.0,5,0.00,,,-99.99,,2013-02-17 23:02:00,
2013-02-17 16:11:00,61.0,-10.0,29.53,WSW,253,11.0,27.0,5,0.00,,,-99.99,,2013-02-17 23:11:00,
2013-02-17 16:21:00,60.0,-10.0,29.52,West,277,13.0,32.0,5,0.00,,,-99.99,,2013-02-17 23:21:00,
2013-02-17 16:32:00,59.0,-11.0,29.52,West,277,24.0,33.0,5,0.00,,,-99.99,,2013-02-17 23:32:00,
2013-02-17 16:42:00,59.0,-11.0,29.53,West,262,21.0,24.0,5,0.00,,,-99.99,,2013-02-17 23:42:00,
2013-02-17 16:52:00,59.0,-10.0,29.52,West,270,22.0,29.0,5,0.00,,,-99.99,,2013-02-17 23:52:00,
2013-02-17 17:01:00,58.0,-10.0,29.53,WSW,258,14.0,23.0,6,0.00,,,-99.99,,2013-02-18 00:01:00,
2013-02-17 17:11:00,57.0,-10.0,29.53,WNW,283,19.0,25.0,6,0.00,,,-99.99,,2013-02-18 00:11:00,
2013-02-17 17:22:00,57.0,-11.0,29.53,West,267,14.0,27.0,6,0.00,,,-99.99,,2013-02-18 00:22:00,
2013-02-17 17:31:00,56.0,-10.0,29.53,West,270,13.0,19.0,6,0.00,,,-99.99,,2013-02-18 00:31:00,
2013-02-17 17:41:00,55.0,-10.0,29.53,WSW,249,5.0,20.0,6,0.00,,,-99.99,,2013-02-18 00:41:00,
2013-02-17 17:52:00,54.0,-10.0,29.53,West,279,6.0,16.0,7,0.00,,,-99.99,,2013-02-18 00:52:00,
2013-02-17 18:01:00,53.0,-10.0,29.55,WNW,291,6.0,9.0,7,0.00,,,-99.99,,2013-02-18 01:01:00,
2013-02-17 18:11:00,52.0,-1.0,29.55,NNW,327,9.0,15.0,11,0.00,,,-99.99,,2013-02-18 01:11:00,
2013-02-17 18:21:00,51.0,1.0,29.56,NW,319,7.0,14.0,12,0.00,,,-99.99,,2013-02-18 01:21:00,
2013-02-17 18:31:00,50.0,1.0,29.56,NW,320,5.0,13.0,13,0.00,,,-99.99,,2013-02-18 01:31:00,
2013-02-17 18:41:00,49.0,1.0,29.56,NW,326,5.0,12.0,13,0.00,,,-99.99,,2013-02-18 01:41:00,
2013-02-17 18:51:00,49.0,1.0,29.56,WNW,295,9.0,12.0,14,0.00,,,-99.99,,2013-02-18 01:51:00,
2013-02-17 19:01:00,47.0,1.0,29.57,WNW,284,3.0,10.0,14,0.00,,,-99.99,,2013-02-18 02:01:00,
2013-02-17 19:11:00,46.0,1.0,29.57,SE,126,1.0,4.0,15,0.00,,,-99.99,,2013-02-18 02:11:00,
2013-02-17 19:21:00,45.0,2.0,29.58,East,82,5.0,6.0,17,0.00,,,-99.99,,2013-02-18 02:21:00,
2013-02-17 19:32:00,44.0,3.0,29.58,ENE,71,6.0,7.0,18,0.00,,,-99.99,,2013-02-18 02:32:00,
2013-02-17 19:41:00,45.0,3.0,29.58,ENE,69,8.0,13.0,17,0.00,,,-99.99,,2013-02-18 02:41:00,
2013-02-17 19:52:00,44.0,2.0,29.59,NE,48,7.0,13.0,17,0.00,,,-99.99,,2013-02-18 02:52:00,
2013-02-17 20:01:00,44.0,4.0,29.62,ENE,59,11.0,22.0,18,0.00,,,-99.99,,2013-02-18 03:01:00,
2013-02-17 20:11:00,41.0,10.0,29.62,East,86,23.0,23.0,26,0.00,,,-99.99,,2013-02-18 03:11:00,
2013-02-17 20:21:00,40.0,13.0,29.63,East,82,15.0,24.0,33,0.00,,,-99.99,,2013-02-18 03:21:00,
2013-02-17 20:31:00,38.0,15.0,29.64,ENE,65,21.0,27.0,37,0.00,,,-99.99,,2013-02-18 03:31:00,
2013-02-17 20:42:00,38.0,16.0,29.65,ENE,60,15.0,28.0,41,0.00,,,-99.99,,2013-02-18 03:42:00,
2013-02-17 20:51:00,37.0,16.0,29.65,ENE,59,19.0,25.0,42,0.00,,,-99.99,,2013-02-18 03:51:00,
2013-02-17 21:01:00,36.0,16.0,29.66,NE,53,12.0,25.0,42,0.00,,,-99.99,,2013-02-18 04:01:00,
2013-02-17 21:11:00,36.0,15.0,29.66,NE,44,10.0,23.0,42,0.00,,,-99.99,,2013-02-18 04:11:00,
2013-02-17 21:21:00,35.0,14.0,29.67,ENE,58,12.0,19.0,42,0.00,,,-99.99,,2013-02-18 04:21:00,
2013-02-17 21:32:00,35.0,14.0,29.69,ENE,57,11.0,19.0,42,0.00,,,-99.99,,2013-02-18 04:32:00,
2013-02-17 21:41:00,35.0,14.0,29.69,NE,44,18.0,23.0,42,0.00,,,-99.99,,2013-02-18 04:41:00,
2013-02-17 21:51:00,34.0,15.0,29.70,NE,53,17.0,25.0,44,0.00,,,-99.99,,2013-02-18 04:51:00,
2013-02-17 22:01:00,34.0,15.0,29.72,SSW,206,3.0,18.0,46,0.00,,,-99.99,,2013-02-18 05:01:00,
2013-02-17 22:11:00,34.0,16.0,29.72,NNE,16,5.0,9.0,47,0.00,,,-99.99,,2013-02-18 05:11:00,
2013-02-17 22:21:00,33.0,16.0,29.72,ENE,61,9.0,13.0,48,0.00,,,-99.99,,2013-02-18 05:21:00,
2013-02-17 22:31:00,34.0,16.0,29.72,NNE,18,7.0,11.0,47,0.00,,,-99.99,,2013-02-18 05:31:00,
2013-02-17 22:41:00,33.0,15.0,29.73,ENE,77,4.0,11.0,46,0.00,,,-99.99,,2013-02-18 05:41:00,
2013-02-17 22:52:00,33.0,14.0,29.74,North,354,4.0,8.0,46,0.00,,,-99.99,,2013-02-18 05:52:00,
2013-02-17 23:02:00,33.0,14.0,29.74,NW,323,3.0,7.0,44,0.00,,,-99.99,,2013-02-18 06:02:00,
2013-02-17 23:11:00,33.0,13.0,29.74,North,358,4.0,10.0,43,0.00,,,-99.99,,2013-02-18 06:11:00,
2013-02-17 23:21:00,32.0,12.0,29.74,NE,47,5.0,10.0,43,0.00,,,-99.99,,2013-02-18 06:21:00,
2013-02-17 23:32:00,32.0,14.0,29.76,ENE,68,8.0,21.0,46,0.00,,,-99.99,,2013-02-18 06:32:00,
2013-02-17 23:41:00,31.0,16.0,29.76,East,79,9.0,12.0,53,0.00,,,-99.99,,2013-02-18 06:41:00,
2013-02-17 23:51:00,31.0,19.0,29.76,ENE,62,8.0,15.0,61,0.00,,,-99.99,,2013-02-18 06:51:00,